createdAt,value
2022-11-20T00:00:05.820Z,-1.52
2022-11-20T00:02:53.493Z,-1.48
2022-11-20T00:05:21.199Z,-1.44
2022-11-20T00:07:47.548Z,-1.41
2022-11-20T00:10:13.957Z,-1.36
2022-11-20T00:12:40.489Z,-1.34
2022-11-20T00:15:07.495Z,-1.31
2022-11-20T00:17:33.972Z,-1.30
2022-11-20T00:20:00.344Z,-1.27
2022-11-20T00:22:26.941Z,-1.26
2022-11-20T00:24:53.359Z,-1.27
2022-11-20T00:27:19.779Z,-1.30
2022-11-20T00:29:46.251Z,-1.33
2022-11-20T00:32:12.676Z,-1.35
2022-11-20T00:34:39.216Z,-1.37
2022-11-20T00:37:05.604Z,-1.37
2022-11-20T00:39:31.973Z,-1.38
2022-11-20T00:41:58.354Z,-1.40
2022-11-20T00:44:24.839Z,-1.40
2022-11-20T00:46:51.185Z,-1.40
2022-11-20T00:49:17.601Z,-1.42
2022-11-20T00:51:44.121Z,-1.42
2022-11-20T00:54:10.618Z,-1.43
2022-11-20T00:56:36.951Z,-1.42
2022-11-20T00:59:03.480Z,-1.42
2022-11-20T01:01:30.534Z,-1.44
2022-11-20T01:03:58.312Z,-1.48
2022-11-20T01:06:26.335Z,-1.55
2022-11-20T01:08:53.937Z,-1.66
2022-11-20T01:11:21.999Z,-1.75
2022-11-20T01:13:49.322Z,-1.79
2022-11-20T01:16:17.204Z,-1.81
2022-11-20T01:18:45.420Z,-1.83
2022-11-20T01:21:13.304Z,-1.85
2022-11-20T01:23:40.734Z,-1.86
2022-11-20T01:26:09.404Z,-1.84
2022-11-20T01:28:36.380Z,-1.84
2022-11-20T01:31:11.303Z,-1.81
2022-11-20T01:33:37.645Z,-1.81
2022-11-20T01:36:05.397Z,-1.78
2022-11-20T01:38:31.950Z,-1.77
2022-11-20T01:40:58.423Z,-1.78
2022-11-20T01:43:25.956Z,-1.80
2022-11-20T01:45:52.315Z,-1.82
2022-11-20T01:48:19.670Z,-1.79
2022-11-20T01:50:46.105Z,-1.76
2022-11-20T01:53:15.200Z,-1.76
2022-11-20T01:55:49.142Z,-1.75
2022-11-20T01:58:16.512Z,-1.72
2022-11-20T02:00:43.124Z,-1.74
2022-11-20T02:03:11.569Z,-1.71
2022-11-20T02:05:45.015Z,-1.68
2022-11-20T02:08:12.538Z,-1.64
2022-11-20T02:10:38.887Z,-1.62
2022-11-20T02:13:24.158Z,-1.62
2022-11-20T02:15:50.600Z,-1.64
2022-11-20T02:18:19.116Z,-1.66
2022-11-20T02:20:46.871Z,-1.67
2022-11-20T02:23:17.379Z,-1.67
2022-11-20T02:25:44.752Z,-1.71
2022-11-20T02:28:11.096Z,-1.74
2022-11-20T02:30:37.685Z,-1.76
2022-11-20T02:33:04.005Z,-1.75
2022-11-20T02:35:30.348Z,-1.75
2022-11-20T02:37:58.408Z,-1.73
2022-11-20T02:40:25.204Z,-1.72
2022-11-20T02:42:55.432Z,-1.73
2022-11-20T02:45:23.100Z,-1.75
2022-11-20T02:47:49.835Z,-1.73
2022-11-20T02:50:16.262Z,-1.74
2022-11-20T02:52:42.861Z,-1.76
2022-11-20T02:55:09.199Z,-1.78
2022-11-20T02:57:35.559Z,-1.79
2022-11-20T03:00:03.015Z,-1.79
2022-11-20T03:02:32.615Z,-1.76
2022-11-20T03:04:59.066Z,-1.71
2022-11-20T03:07:25.437Z,-1.71
2022-11-20T03:09:51.856Z,-1.75
2022-11-20T03:12:18.293Z,-1.77
2022-11-20T03:14:46.774Z,-1.75
2022-11-20T03:17:17.099Z,-1.71
2022-11-20T03:19:43.447Z,-1.74
2022-11-20T03:22:09.896Z,-1.76
2022-11-20T03:24:36.229Z,-1.75
2022-11-20T03:27:02.642Z,-1.74
2022-11-20T03:29:29.362Z,-1.72
2022-11-20T03:31:55.695Z,-1.72
2022-11-20T03:34:22.068Z,-1.68
2022-11-20T03:36:48.413Z,-1.64
2022-11-20T03:39:14.775Z,-1.61
2022-11-20T03:41:41.781Z,-1.59
2022-11-20T03:44:09.269Z,-1.58
2022-11-20T03:46:35.668Z,-1.59
2022-11-20T03:49:02.512Z,-1.61
2022-11-20T03:51:30.045Z,-1.60
2022-11-20T03:53:58.694Z,-1.61
2022-11-20T03:56:26.986Z,-1.62
2022-11-20T03:58:53.712Z,-1.65
2022-11-20T04:01:22.092Z,-1.67
2022-11-20T04:03:48.951Z,-1.64
2022-11-20T04:06:15.295Z,-1.63
2022-11-20T04:08:42.208Z,-1.62
2022-11-20T04:11:13.058Z,-1.58
2022-11-20T04:13:40.053Z,-1.57
2022-11-20T04:16:07.432Z,-1.54
2022-11-20T04:18:33.863Z,-1.53
2022-11-20T04:21:00.419Z,-1.52
2022-11-20T04:23:28.827Z,-1.49
2022-11-20T04:25:55.578Z,-1.49
2022-11-20T04:28:21.996Z,-1.50
2022-11-20T04:30:48.377Z,-1.52
2022-11-20T04:33:14.757Z,-1.53
2022-11-20T04:35:41.139Z,-1.54
2022-11-20T04:38:07.507Z,-1.56
2022-11-20T04:40:33.817Z,-1.56
2022-11-20T04:43:00.323Z,-1.56
2022-11-20T04:45:26.663Z,-1.55
2022-11-20T04:47:53.090Z,-1.52
2022-11-20T04:50:19.420Z,-1.50
2022-11-20T04:52:45.794Z,-1.47
2022-11-20T04:55:12.136Z,-1.45
2022-11-20T04:57:38.459Z,-1.44
2022-11-20T05:00:05.215Z,-1.41
2022-11-20T05:02:32.502Z,-1.39
2022-11-20T05:04:58.869Z,-1.38
2022-11-20T05:07:25.293Z,-1.38
2022-11-20T05:09:51.631Z,-1.37
2022-11-20T05:12:18.001Z,-1.37
2022-11-20T05:14:44.610Z,-1.39
2022-11-20T05:17:11.740Z,-1.41
2022-11-20T05:19:38.328Z,-1.45
2022-11-20T05:22:04.964Z,-1.47
2022-11-20T05:24:31.338Z,-1.49
2022-11-20T05:26:57.783Z,-1.52
2022-11-20T05:29:24.170Z,-1.55
2022-11-20T05:31:50.696Z,-1.57
2022-11-20T05:34:17.079Z,-1.57
2022-11-20T05:36:43.423Z,-1.59
2022-11-20T05:39:10.157Z,-1.55
2022-11-20T05:41:36.516Z,-1.51
2022-11-20T05:44:03.591Z,-1.49
2022-11-20T05:46:30.060Z,-1.48
2022-11-20T05:48:57.508Z,-1.47
2022-11-20T05:51:24.529Z,-1.46
2022-11-20T05:53:51.003Z,-1.47
2022-11-20T05:56:18.757Z,-1.47
2022-11-20T05:58:45.799Z,-1.48
2022-11-20T06:01:12.128Z,-1.50
2022-11-20T06:03:39.439Z,-1.53
2022-11-20T06:06:06.602Z,-1.58
2022-11-20T06:08:33.127Z,-1.63
2022-11-20T06:11:03.269Z,-1.66
2022-11-20T06:13:29.639Z,-1.71
2022-11-20T06:15:56.020Z,-1.72
2022-11-20T06:18:22.430Z,-1.74
2022-11-20T06:20:48.776Z,-1.74
2022-11-20T06:23:15.278Z,-1.73
2022-11-20T06:25:42.466Z,-1.73
2022-11-20T06:28:09.415Z,-1.72
2022-11-20T06:30:36.250Z,-1.70
2022-11-20T06:33:02.637Z,-1.71
2022-11-20T06:35:29.029Z,-1.71
2022-11-20T06:37:56.553Z,-1.74
2022-11-20T06:40:22.931Z,-1.78
2022-11-20T06:42:49.296Z,-1.78
2022-11-20T06:45:15.651Z,-1.80
2022-11-20T06:47:41.984Z,-1.82
2022-11-20T06:50:08.553Z,-1.82
2022-11-20T06:52:38.257Z,-1.82
2022-11-20T06:55:07.556Z,-1.84
2022-11-20T06:57:33.907Z,-1.82
2022-11-20T07:00:00.236Z,-1.80
2022-11-20T07:02:26.565Z,-1.78
2022-11-20T07:04:52.923Z,-1.76
2022-11-20T07:07:19.310Z,-1.75
2022-11-20T07:09:45.655Z,-1.73
2022-11-20T07:12:11.977Z,-1.71
2022-11-20T07:14:38.309Z,-1.69
2022-11-20T07:17:04.653Z,-1.68
2022-11-20T07:19:30.992Z,-1.67
2022-11-20T07:21:57.360Z,-1.65
2022-11-20T07:24:23.718Z,-1.64
2022-11-20T07:26:50.200Z,-1.66
2022-11-20T07:29:16.860Z,-1.64
2022-11-20T07:31:43.669Z,-1.60
2022-11-20T07:34:10.083Z,-1.55
2022-11-20T07:36:36.505Z,-1.51
2022-11-20T07:39:03.025Z,-1.51
2022-11-20T07:41:29.508Z,-1.49
2022-11-20T07:43:55.863Z,-1.49
2022-11-20T07:46:22.705Z,-1.47
2022-11-20T07:48:49.056Z,-1.43
2022-11-20T07:51:15.446Z,-1.40
2022-11-20T07:53:41.777Z,-1.38
2022-11-20T07:56:08.111Z,-1.34
2022-11-20T07:58:34.901Z,-1.28
2022-11-20T08:01:05.984Z,-1.24
2022-11-20T08:03:32.628Z,-1.20
2022-11-20T08:06:01.037Z,-1.16
2022-11-20T08:08:28.165Z,-1.08
2022-11-20T08:11:14.760Z,-1.04
2022-11-20T08:14:00.193Z,-1.03
2022-11-20T08:16:26.568Z,-0.98
2022-11-20T08:18:52.912Z,-0.92
2022-11-20T08:21:19.228Z,-0.89
2022-11-20T08:23:45.632Z,-0.89
2022-11-20T08:26:12.000Z,-0.83
2022-11-20T08:28:38.323Z,-0.73
2022-11-20T08:31:04.824Z,-0.62
2022-11-20T08:33:33.075Z,-0.55
2022-11-20T08:36:00.820Z,-0.52
2022-11-20T08:38:27.148Z,-0.49
2022-11-20T08:41:15.408Z,-0.45
2022-11-20T08:43:41.793Z,-0.37
2022-11-20T08:46:08.110Z,-0.30
2022-11-20T08:48:34.506Z,-0.24
2022-11-20T08:51:00.881Z,-0.25
2022-11-20T08:53:27.676Z,-0.23
2022-11-20T08:55:54.204Z,-0.22
2022-11-20T08:58:20.512Z,-0.23
2022-11-20T09:00:47.694Z,-0.24
2022-11-20T09:03:14.105Z,-0.21
2022-11-20T09:05:40.444Z,-0.12
2022-11-20T09:08:06.825Z,-0.07
2022-11-20T09:10:33.179Z,-0.06
2022-11-20T09:12:59.627Z,0.01
2022-11-20T09:15:26.492Z,0.07
2022-11-20T09:17:52.805Z,0.09
2022-11-20T09:20:19.344Z,0.16
2022-11-20T09:22:45.740Z,0.24
2022-11-20T09:25:12.186Z,0.34
2022-11-20T09:27:38.519Z,0.45
2022-11-20T09:30:05.190Z,0.59
2022-11-20T09:32:31.758Z,0.71
2022-11-20T09:34:58.067Z,0.80
2022-11-20T09:37:24.553Z,0.84
2022-11-20T09:39:50.864Z,0.89
2022-11-20T09:42:25.452Z,0.99
2022-11-20T09:45:21.234Z,1.08
2022-11-20T09:48:13.781Z,1.15
2022-11-20T09:50:53.993Z,1.11
2022-11-20T09:53:23.645Z,1.18
2022-11-20T09:55:50.251Z,1.28
2022-11-20T09:58:25.569Z,1.31
2022-11-20T10:00:53.718Z,1.27
2022-11-20T10:03:25.179Z,1.36
2022-11-20T10:05:53.559Z,1.41
2022-11-20T10:08:32.328Z,1.46
2022-11-20T10:11:04.666Z,1.50
2022-11-20T10:13:31.020Z,1.55
2022-11-20T10:16:06.333Z,1.52
2022-11-20T10:18:45.118Z,1.51
2022-11-20T10:21:11.467Z,1.58
2022-11-20T10:23:46.072Z,1.60
2022-11-20T10:26:31.540Z,1.68
2022-11-20T10:29:09.974Z,1.83
2022-11-20T10:31:37.889Z,1.89
2022-11-20T10:34:20.975Z,1.83
2022-11-20T10:36:53.192Z,1.71
2022-11-20T10:39:25.489Z,1.64
2022-11-20T10:41:53.016Z,1.50
2022-11-20T10:44:45.570Z,1.38
2022-11-20T10:47:18.731Z,1.36
2022-11-20T10:49:51.534Z,1.28
2022-11-20T10:52:20.952Z,1.17
2022-11-20T10:54:56.806Z,1.12
2022-11-20T10:57:26.186Z,1.02
2022-11-20T10:59:58.668Z,0.94
2022-11-20T11:02:31.701Z,0.94
2022-11-20T11:04:59.165Z,0.97
2022-11-20T11:07:25.594Z,1.01
2022-11-20T11:09:53.953Z,1.01
2022-11-20T11:12:21.335Z,1.01
2022-11-20T11:14:47.679Z,1.04
2022-11-20T11:17:33.628Z,1.12
2022-11-20T11:20:01.333Z,1.19
2022-11-20T11:22:29.552Z,1.24
2022-11-20T11:24:56.139Z,1.28
2022-11-20T11:27:22.574Z,1.28
2022-11-20T11:29:48.981Z,1.30
2022-11-20T11:32:18.165Z,1.32
2022-11-20T11:34:45.138Z,1.25
2022-11-20T11:37:15.417Z,1.24
2022-11-20T11:42:18.891Z,1.27
2022-11-20T11:45:07.229Z,1.30
2022-11-20T11:47:43.986Z,1.31
2022-11-20T11:50:23.657Z,1.28
2022-11-20T11:53:02.791Z,1.30
2022-11-20T11:55:47.170Z,1.26
2022-11-20T11:58:38.018Z,1.25
2022-11-20T12:01:34.445Z,1.20
2022-11-20T12:04:14.667Z,1.12
2022-11-20T12:06:46.159Z,1.09
2022-11-20T12:09:14.246Z,1.10
2022-11-20T12:11:50.973Z,1.09
2022-11-20T12:14:27.661Z,1.13
2022-11-20T12:16:57.984Z,1.13
2022-11-20T12:19:29.562Z,1.15
2022-11-20T12:22:08.322Z,1.13
2022-11-20T12:24:45.856Z,1.10
2022-11-20T12:27:21.770Z,1.06
2022-11-20T12:30:04.300Z,1.06
2022-11-20T12:33:09.417Z,0.99
2022-11-20T12:35:49.063Z,0.95
2022-11-20T12:38:33.626Z,0.89
2022-11-20T12:41:46.757Z,0.85
2022-11-20T12:45:01.579Z,0.82
2022-11-20T12:47:51.848Z,0.82
2022-11-20T12:50:53.302Z,0.85
2022-11-20T12:53:48.888Z,0.82
2022-11-20T12:56:30.504Z,0.79
2022-11-20T12:59:30.917Z,0.75
2022-11-20T13:02:14.573Z,0.77
2022-11-20T13:04:51.543Z,0.85
2022-11-20T13:07:23.723Z,0.91
2022-11-20T13:09:52.293Z,0.94
2022-11-20T13:12:44.832Z,0.98
2022-11-20T13:15:35.895Z,1.01
2022-11-20T13:18:06.489Z,1.03
2022-11-20T13:20:36.095Z,1.00
2022-11-20T13:23:04.045Z,1.05
2022-11-20T13:25:33.225Z,1.09
2022-11-20T13:28:26.076Z,1.11
2022-11-20T13:30:55.977Z,1.13
2022-11-20T13:33:36.578Z,1.12
2022-11-20T13:36:22.037Z,1.14
2022-11-20T13:38:56.029Z,1.16
2022-11-20T13:41:36.277Z,1.15
2022-11-20T13:44:09.088Z,1.14
2022-11-20T13:46:45.009Z,1.21
2022-11-20T13:49:27.048Z,1.26
2022-11-20T13:52:21.663Z,1.28
2022-11-20T13:55:13.633Z,1.30
2022-11-20T13:58:05.837Z,1.24
2022-11-20T14:00:34.176Z,1.19
2022-11-20T14:03:50.760Z,1.15
2022-11-20T14:06:32.926Z,1.06
2022-11-20T14:09:01.504Z,1.05
2022-11-20T14:11:31.478Z,1.05
2022-11-20T14:14:06.987Z,1.03
2022-11-20T14:16:37.082Z,1.00
2022-11-20T14:19:29.388Z,0.96
2022-11-20T14:22:15.709Z,0.89
2022-11-20T14:24:43.732Z,0.84
2022-11-20T14:27:20.649Z,0.78
2022-11-20T14:29:51.276Z,0.75
2022-11-20T14:32:21.321Z,0.71
2022-11-20T14:34:51.789Z,0.69
2022-11-20T14:37:24.564Z,0.72
2022-11-20T14:39:55.748Z,0.70
2022-11-20T14:42:26.708Z,0.66
2022-11-20T14:44:58.831Z,0.65
2022-11-20T14:47:31.701Z,0.62
2022-11-20T14:50:05.741Z,0.54
2022-11-20T14:52:36.630Z,0.46
2022-11-20T14:55:05.199Z,0.40
2022-11-20T14:57:35.360Z,0.31
2022-11-20T15:00:06.564Z,0.23
2022-11-20T15:02:35.046Z,0.21
2022-11-20T15:05:06.168Z,0.19
2022-11-20T15:07:37.263Z,0.18
2022-11-20T15:10:07.322Z,0.18
2022-11-20T15:12:39.781Z,0.12
2022-11-20T15:15:13.348Z,0.11
2022-11-20T15:17:41.959Z,0.08
2022-11-20T15:20:14.656Z,0.05
2022-11-20T15:22:42.705Z,0.03
2022-11-20T15:25:18.497Z,-0.01
2022-11-20T15:27:50.439Z,-0.02
2022-11-20T15:30:20.923Z,-0.03
2022-11-20T15:32:49.254Z,-0.08
2022-11-20T15:35:17.485Z,-0.14
2022-11-20T15:37:45.389Z,-0.22
2022-11-20T15:40:13.661Z,-0.28
2022-11-20T15:43:01.598Z,-0.31
2022-11-20T15:45:34.382Z,-0.31
2022-11-20T15:48:03.577Z,-0.34
2022-11-20T15:50:39.056Z,-0.43
2022-11-20T15:53:06.908Z,-0.48
2022-11-20T15:55:34.922Z,-0.48
2022-11-20T15:58:02.887Z,-0.46
2022-11-20T16:00:31.340Z,-0.45
2022-11-20T16:02:59.461Z,-0.44
2022-11-20T16:05:30.261Z,-0.46
2022-11-20T16:07:58.275Z,-0.56
2022-11-20T16:10:26.196Z,-0.59
2022-11-20T16:13:12.733Z,-0.60
2022-11-20T16:15:46.995Z,-0.61
2022-11-20T16:18:21.582Z,-0.61
2022-11-20T16:20:55.069Z,-0.63
2022-11-20T16:23:23.450Z,-0.71
2022-11-20T16:25:51.829Z,-0.77
2022-11-20T16:28:19.804Z,-0.79
2022-11-20T16:30:47.641Z,-0.78
2022-11-20T16:33:20.865Z,-0.76
2022-11-20T16:35:48.909Z,-0.72
2022-11-20T16:38:16.896Z,-0.68
2022-11-20T16:40:44.999Z,-0.65
2022-11-20T16:43:14.996Z,-0.69
2022-11-20T16:45:44.849Z,-0.72
2022-11-20T16:48:15.034Z,-0.75
2022-11-20T16:50:51.987Z,-0.83
2022-11-20T16:53:21.969Z,-0.85
2022-11-20T16:55:49.823Z,-0.82
2022-11-20T16:58:18.034Z,-0.82
2022-11-20T17:00:51.418Z,-0.81
2022-11-20T17:03:21.147Z,-0.80
2022-11-20T17:05:49.258Z,-0.79
2022-11-20T17:08:17.327Z,-0.80
2022-11-20T17:10:45.740Z,-0.78
2022-11-20T17:13:14.084Z,-0.76
2022-11-20T17:15:42.111Z,-0.75
2022-11-20T17:18:10.114Z,-0.73
2022-11-20T17:20:38.135Z,-0.72
2022-11-20T17:23:06.133Z,-0.72
2022-11-20T17:25:34.725Z,-0.75
2022-11-20T17:28:02.829Z,-0.70
2022-11-20T17:30:30.988Z,-0.66
2022-11-20T17:32:59.100Z,-0.63
2022-11-20T17:35:26.949Z,-0.63
2022-11-20T17:37:55.109Z,-0.65
2022-11-20T17:40:27.355Z,-0.70
2022-11-20T17:42:55.699Z,-0.74
2022-11-20T17:45:23.902Z,-0.80
2022-11-20T17:47:51.794Z,-0.87
2022-11-20T17:50:19.842Z,-0.90
2022-11-20T17:52:47.751Z,-0.94
2022-11-20T17:55:15.771Z,-0.95
2022-11-20T17:57:52.815Z,-0.97
2022-11-20T18:00:21.214Z,-1.01
2022-11-20T18:02:49.769Z,-1.04
2022-11-20T18:05:17.729Z,-1.06
2022-11-20T18:07:45.835Z,-1.03
2022-11-20T18:10:13.981Z,-1.06
2022-11-20T18:12:41.815Z,-1.17
2022-11-20T18:15:09.920Z,-1.27
2022-11-20T18:17:37.791Z,-1.32
2022-11-20T18:20:27.739Z,-1.35
2022-11-20T18:22:54.413Z,-1.33
2022-11-20T18:25:22.363Z,-1.33
2022-11-20T18:27:50.254Z,-1.32
2022-11-20T18:30:18.119Z,-1.32
2022-11-20T18:32:45.896Z,-1.29
2022-11-20T18:35:13.851Z,-1.22
2022-11-20T18:37:41.716Z,-1.15
2022-11-20T18:40:10.673Z,-1.11
2022-11-20T18:42:57.085Z,-1.12
2022-11-20T18:45:25.044Z,-1.13
2022-11-20T18:47:52.923Z,-1.18
2022-11-20T18:50:20.775Z,-1.27
2022-11-20T18:52:48.710Z,-1.28
2022-11-20T18:55:16.562Z,-1.27
2022-11-20T18:57:44.525Z,-1.25
2022-11-20T19:00:13.230Z,-1.26
2022-11-20T19:02:43.320Z,-1.25
2022-11-20T19:05:14.047Z,-1.17
2022-11-20T19:07:43.008Z,-1.14
2022-11-20T19:10:11.274Z,-1.11
2022-11-20T19:12:39.260Z,-1.12
2022-11-20T19:15:07.865Z,-1.13
2022-11-20T19:17:35.818Z,-1.16
2022-11-20T19:20:03.907Z,-1.18
2022-11-20T19:22:31.805Z,-1.22
2022-11-20T19:25:00.117Z,-1.25
2022-11-20T19:27:27.991Z,-1.29
2022-11-20T19:30:03.550Z,-1.32
2022-11-20T19:32:32.686Z,-1.31
2022-11-20T19:35:01.221Z,-1.31
2022-11-20T19:37:29.145Z,-1.34
2022-11-20T19:39:59.641Z,-1.36
2022-11-20T19:42:27.574Z,-1.35
2022-11-20T19:44:55.507Z,-1.35
2022-11-20T19:47:35.368Z,-1.36
2022-11-20T19:50:11.673Z,-1.43
2022-11-20T19:52:39.473Z,-1.45
2022-11-20T19:55:07.768Z,-1.49
2022-11-20T19:57:35.892Z,-1.49
2022-11-20T20:00:04.261Z,-1.49
2022-11-20T20:02:32.901Z,-1.48
2022-11-20T20:05:00.875Z,-1.49
2022-11-20T20:07:28.826Z,-1.51
2022-11-20T20:09:56.816Z,-1.52
2022-11-20T20:12:24.785Z,-1.55
2022-11-20T20:14:52.587Z,-1.59
2022-11-20T20:17:20.681Z,-1.66
2022-11-20T20:19:48.591Z,-1.73
2022-11-20T20:22:16.459Z,-1.79
2022-11-20T20:24:44.251Z,-1.89
2022-11-20T20:27:12.126Z,-1.94
2022-11-20T20:29:39.959Z,-2.00
2022-11-20T20:32:07.826Z,-2.04
2022-11-20T20:34:35.704Z,-2.11
2022-11-20T20:37:05.346Z,-2.17
2022-11-20T20:39:33.411Z,-2.23
2022-11-20T20:42:01.259Z,-2.30
2022-11-20T20:44:47.792Z,-2.40
2022-11-20T20:47:15.640Z,-2.49
2022-11-20T20:49:43.530Z,-2.58
2022-11-20T20:52:11.499Z,-2.65
2022-11-20T20:54:42.024Z,-2.74
2022-11-20T20:57:09.852Z,-2.82
2022-11-20T20:59:37.664Z,-2.86
2022-11-20T21:02:05.740Z,-2.89
2022-11-20T21:04:34.169Z,-2.93
2022-11-20T21:07:02.110Z,-2.95
2022-11-20T21:09:30.106Z,-2.97
2022-11-20T21:11:58.045Z,-3.00
2022-11-20T21:14:26.020Z,-3.05
2022-11-20T21:16:54.451Z,-3.10
2022-11-20T21:19:22.600Z,-3.17
2022-11-20T21:21:59.289Z,-3.21
2022-11-20T21:24:28.819Z,-3.24
2022-11-20T21:26:57.545Z,-3.26
2022-11-20T21:29:27.589Z,-3.28
2022-11-20T21:31:56.513Z,-3.31
2022-11-20T21:34:25.598Z,-3.34
2022-11-20T21:36:53.844Z,-3.33
2022-11-20T21:39:22.175Z,-3.33
2022-11-20T21:41:50.125Z,-3.34
2022-11-20T21:44:33.317Z,-3.36
2022-11-20T21:47:01.211Z,-3.39
2022-11-20T21:49:29.124Z,-3.44
2022-11-20T21:51:57.241Z,-3.51
2022-11-20T21:54:25.520Z,-3.55
2022-11-20T21:56:53.671Z,-3.60
2022-11-20T21:59:22.322Z,-3.66
2022-11-20T22:01:50.348Z,-3.70
2022-11-20T22:04:18.327Z,-3.73
2022-11-20T22:06:46.285Z,-3.75
2022-11-20T22:09:14.159Z,-3.78
2022-11-20T22:11:42.013Z,-3.81
2022-11-20T22:14:23.764Z,-3.91
2022-11-20T22:16:53.794Z,-4.00
2022-11-20T22:19:22.852Z,-4.12
2022-11-20T22:21:51.205Z,-4.20
2022-11-20T22:24:22.491Z,-4.23
2022-11-20T22:26:51.139Z,-4.27
2022-11-20T22:29:21.305Z,-4.32
2022-11-20T22:31:52.452Z,-4.37
2022-11-20T22:34:20.795Z,-4.43
2022-11-20T22:36:50.005Z,-4.46
2022-11-20T22:39:17.834Z,-4.49
2022-11-20T22:41:45.761Z,-4.54
2022-11-20T22:44:14.452Z,-4.60
2022-11-20T22:46:42.988Z,-4.66
2022-11-20T22:49:11.107Z,-4.70
2022-11-20T22:51:41.143Z,-4.73
2022-11-20T22:54:12.026Z,-4.77
2022-11-20T22:56:41.314Z,-4.80
2022-11-20T22:59:09.314Z,-4.84
2022-11-20T23:01:38.542Z,-4.88
2022-11-20T23:04:09.952Z,-4.94
2022-11-20T23:06:38.369Z,-4.99
2022-11-20T23:09:07.414Z,-5.01
2022-11-20T23:11:36.103Z,-5.02
2022-11-20T23:14:07.068Z,-5.05
2022-11-20T23:16:35.822Z,-5.06
2022-11-20T23:19:09.119Z,-5.07
2022-11-20T23:21:38.621Z,-5.08
2022-11-20T23:24:07.724Z,-5.08
2022-11-20T23:26:37.856Z,-5.06
2022-11-20T23:29:06.706Z,-5.07
2022-11-20T23:31:36.144Z,-5.07
2022-11-20T23:34:05.186Z,-5.10
2022-11-20T23:36:33.114Z,-5.13
2022-11-20T23:39:01.176Z,-5.14
2022-11-20T23:41:28.951Z,-5.14
2022-11-20T23:43:56.855Z,-5.15
2022-11-20T23:46:24.880Z,-5.18
2022-11-20T23:48:52.631Z,-5.23
2022-11-20T23:51:20.708Z,-5.25
2022-11-20T23:53:48.585Z,-5.27
2022-11-20T23:56:16.539Z,-5.30
2022-11-20T23:58:44.525Z,-5.33
